Paines Hollow, New York
Current Conditions -  °F | °C
As of 6:53 AM on Thursday 27 Nov 2014 (Local Time) from KRME Reporting Station
Light Snow Light Snow  
Wind Chill: -7°   Ceiling: 2300
Heat Index: -2°   Visibility: 7mi
Dew Point: -3°   Wind: 8mph
Humidity: 92%   Direction: 280°W
Pressure: 30.01"   Gusts: NA
Location:  42.9627°N, 74.9432°W
Report Text: KRME 271153Z 28007KT 7SM -SN SCT019 BKN023 OVC046 M02/M03 A3001 RMK AO2 SLP167 P0000 60000 70028 T10221033 11022 21028 51008
Loading
Personal Weather Stations






























Interactive Weather Map New forecast layout! Learn more

10-Day Weather Forecast

Advertisements
Track Severe Weather on mobile